Time;durP1;ratioP1;P1;durP2;ratioP2;P2;SDS_P1;SDS_P2;PMS_P1;PMS_P2;Temp;Humidity;BMP_temperature;BMP_pressure;BME280_temperature;BME280_humidity;BME280_pressure;Samples;Min_cycle;Max_cycle;Signal;HPM_P1;HPM_P2
2022/06/09 00:00:16;;;;;;;4.88;2.53;;;21.00;99.90;;;;;;5021082;28;20034;-73
2022/06/09 00:02:46;;;;;;;4.82;2.38;;;20.90;99.90;;;;;;5020433;28;20516;-72
2022/06/09 00:05:12;;;;;;;6.03;2.50;;;20.90;99.90;;;;;;5040735;28;20041;-72
2022/06/09 00:07:39;;;;;;;7.70;2.65;;;20.90;99.90;;;;;;5022821;28;20038;-71
2022/06/09 00:10:12;;;;;;;4.88;2.67;;;20.90;99.90;;;;;;5024867;28;20369;-72
2022/06/09 00:12:39;;;;;;;7.28;2.60;;;20.90;99.90;;;;;;5019539;28;20053;-72
2022/06/09 00:15:09;;;;;;;7.18;2.80;;;20.90;99.90;;;;;;5019499;28;20055;-70
2022/06/09 00:17:36;;;;;;;6.38;2.70;;;20.80;99.90;;;;;;5023980;28;20037;-72
2022/06/09 00:20:03;;;;;;;6.38;2.83;;;20.80;99.90;;;;;;5021584;28;20119;-71
2022/06/09 00:22:30;;;;;;;5.45;2.42;;;20.80;99.90;;;;;;5024178;28;20037;-72
2022/06/09 00:24:57;;;;;;;7.20;3.08;;;20.80;99.90;;;;;;5019316;28;20048;-72
2022/06/09 00:27:23;;;;;;;5.40;2.50;;;20.80;99.90;;;;;;5036140;28;20046;-72
2022/06/09 00:29:49;;;;;;;5.80;2.40;;;20.80;99.90;;;;;;5019910;28;20033;-71
2022/06/09 00:32:15;;;;;;;4.03;2.55;;;20.80;99.90;;;;;;5022460;28;20041;-72
2022/06/09 00:34:41;;;;;;;4.20;2.55;;;20.80;99.90;;;;;;5028136;28;20029;-72
2022/06/09 00:37:07;;;;;;;7.35;3.05;;;20.80;99.90;;;;;;5038058;28;20025;-70
2022/06/09 00:39:33;;;;;;;7.28;2.58;;;20.90;99.90;;;;;;5037390;28;20037;-73
2022/06/09 00:41:59;;;;;;;7.40;2.60;;;20.90;99.90;;;;;;5020590;28;20726;-72
2022/06/09 00:44:28;;;;;;;4.35;2.60;;;20.90;99.90;;;;;;5020585;28;20048;-71
2022/06/09 00:47:26;;;;;;;10.32;2.70;;;20.90;99.90;;;;;;5041179;28;20041;-72
2022/06/09 00:49:57;;;;;;;6.00;2.50;;;20.90;99.90;;;;;;5019390;28;20133;-71
2022/06/09 00:52:26;;;;;;;5.53;2.53;;;20.90;99.90;;;;;;5023050;28;22260;-72
2022/06/09 00:54:58;;;;;;;5.80;2.28;;;21.00;99.90;;;;;;5035531;28;20072;-71
2022/06/09 00:57:34;;;;;;;13.82;2.47;;;20.90;99.90;;;;;;5019761;28;20146;-71
2022/06/09 01:00:12;;;;;;;6.32;2.58;;;20.90;99.90;;;;;;5022098;28;20041;-72
2022/06/09 01:02:41;;;;;;;5.50;2.45;;;20.90;99.90;;;;;;5035736;28;20081;-71
2022/06/09 01:05:07;;;;;;;7.55;2.13;;;20.90;99.90;;;;;;5039065;28;20058;-72
2022/06/09 01:07:41;;;;;;;4.28;2.10;;;20.90;99.90;;;;;;5017102;28;20500;-71
2022/06/09 01:10:08;;;;;;;3.33;1.98;;;20.90;99.90;;;;;;5036879;28;20108;-70
2022/06/09 01:12:39;;;;;;;4.93;2.30;;;20.90;99.90;;;;;;5020825;28;20038;-70
2022/06/09 01:15:13;;;;;;;4.07;2.20;;;20.80;99.90;;;;;;5022971;28;20041;-71
2022/06/09 01:17:46;;;;;;;5.50;2.50;;;20.80;99.90;;;;;;5020493;28;20041;-72
2022/06/09 01:20:52;;;;;;;5.15;2.40;;;20.80;99.90;;;;;;5020578;28;20140;-72
2022/06/09 01:23:42;;;;;;;6.68;2.67;;;20.80;99.90;;;;;;5008197;28;20042;-71
2022/06/09 01:26:26;;;;;;;5.50;2.42;;;20.80;99.90;;;;;;5019497;28;20095;-72
2022/06/09 01:28:55;;;;;;;4.25;2.10;;;20.80;99.90;;;;;;5039046;28;20042;-72
2022/06/09 01:31:36;;;;;;;7.10;2.30;;;20.70;99.90;;;;;;5033727;28;20486;-71
2022/06/09 01:34:24;;;;;;;4.50;2.42;;;20.70;99.90;;;;;;5035427;28;20041;-71
2022/06/09 01:36:59;;;;;;;4.55;2.17;;;20.80;99.90;;;;;;5031549;28;20107;-70
2022/06/09 01:39:53;;;;;;;5.80;2.13;;;20.80;99.90;;;;;;5016234;28;20057;-71
2022/06/09 01:42:46;;;;;;;3.53;2.20;;;20.70;99.90;;;;;;5031143;28;20389;-73
2022/06/09 01:45:53;;;;;;;7.93;2.30;;;20.70;99.90;;;;;;5021193;28;20033;-71
2022/06/09 01:48:24;;;;;;;4.82;2.47;;;20.70;99.90;;;;;;5016708;28;20128;-71
2022/06/09 01:50:53;;;;;;;6.72;2.40;;;20.80;99.90;;;;;;5043110;28;20037;-71
2022/06/09 01:53:31;;;;;;;4.53;2.20;;;20.80;99.90;;;;;;5020706;28;20029;-72
2022/06/09 01:56:30;;;;;;;7.00;2.13;;;20.80;99.90;;;;;;5025105;28;20045;-72
2022/06/09 01:59:02;;;;;;;4.95;2.33;;;20.70;99.90;;;;;;5017957;28;20083;-71
2022/06/09 02:01:35;;;;;;;6.75;2.15;;;20.70;99.90;;;;;;5016013;28;20128;-72
2022/06/09 02:04:04;;;;;;;6.75;2.35;;;20.80;99.90;;;;;;5038733;28;20045;-71
2022/06/09 02:06:33;;;;;;;4.05;2.03;;;20.80;99.90;;;;;;5023264;28;20041;-71
2022/06/09 02:09:00;;;;;;;7.13;2.50;;;20.80;99.90;;;;;;5034422;28;20370;-71
2022/06/09 02:11:27;;;;;;;5.25;2.20;;;20.80;99.90;;;;;;5019103;28;20156;-72
2022/06/09 02:13:56;;;;;;;6.50;2.10;;;20.80;99.90;;;;;;5019903;28;20041;-72
2022/06/09 02:16:24;;;;;;;7.15;2.53;;;20.80;99.90;;;;;;5024158;28;20045;-72
2022/06/09 02:18:56;;;;;;;5.85;2.25;;;20.80;99.90;;;;;;5024009;28;20098;-71
2022/06/09 02:21:30;;;;;;;3.38;1.85;;;20.90;99.90;;;;;;5020331;28;20052;-73
2022/06/09 02:23:56;;;;;;;4.72;2.00;;;20.80;99.90;;;;;;5022886;28;20049;-72
2022/06/09 02:26:23;;;;;;;6.55;2.08;;;20.80;99.90;;;;;;5032687;28;20190;-72
2022/06/09 02:28:49;;;;;;;4.10;1.98;;;20.80;99.90;;;;;;5021886;28;20065;-71
2022/06/09 02:31:17;;;;;;;5.20;2.08;;;20.70;99.90;;;;;;5017670;28;20045;-72
2022/06/09 02:33:43;;;;;;;3.97;2.22;;;20.80;99.90;;;;;;5021695;28;20508;-71
2022/06/09 02:36:09;;;;;;;5.45;1.92;;;20.70;99.90;;;;;;5021519;28;20042;-70
2022/06/09 02:38:35;;;;;;;5.63;2.08;;;20.80;99.90;;;;;;5037292;28;20041;-72
2022/06/09 02:41:02;;;;;;;6.45;2.20;;;20.70;99.90;;;;;;5019691;28;20033;-72
2022/06/09 02:43:28;;;;;;;7.88;2.13;;;20.70;99.90;;;;;;5019999;28;20042;-71
2022/06/09 02:45:54;;;;;;;4.40;2.03;;;20.70;99.90;;;;;;5017057;28;20501;-71
2022/06/09 02:48:22;;;;;;;6.57;2.28;;;20.70;99.90;;;;;;5020726;28;20041;-72
2022/06/09 02:50:51;;;;;;;4.10;2.10;;;20.80;99.90;;;;;;5019003;28;20119;-70
2022/06/09 02:53:18;;;;;;;7.05;2.33;;;20.80;99.90;;;;;;5032844;28;20045;-72
2022/06/09 02:55:44;;;;;;;5.97;2.30;;;20.80;99.90;;;;;;5017684;28;20088;-73
2022/06/09 02:58:10;;;;;;;5.72;2.05;;;20.80;99.90;;;;;;5019135;28;20034;-71
2022/06/09 03:00:37;;;;;;;4.55;2.08;;;20.90;99.90;;;;;;5019525;28;20378;-72
2022/06/09 03:03:06;;;;;;;5.38;2.30;;;20.90;99.90;;;;;;5033626;28;20045;-71
2022/06/09 03:05:35;;;;;;;4.03;2.03;;;20.90;99.90;;;;;;5021583;28;20034;-72
2022/06/09 03:08:02;;;;;;;5.53;2.10;;;20.90;99.90;;;;;;5025724;28;20043;-72
2022/06/09 03:10:29;;;;;;;4.95;2.17;;;21.00;99.90;;;;;;5020776;28;20033;-71
2022/06/09 03:12:54;;;;;;;5.13;1.98;;;21.00;99.90;;;;;;5035341;28;20045;-71
2022/06/09 03:15:22;;;;;;;5.18;2.63;;;21.00;99.90;;;;;;5021523;28;20050;-72
2022/06/09 03:17:51;;;;;;;3.42;1.80;;;21.10;99.90;;;;;;5020928;28;20095;-72
2022/06/09 03:20:22;;;;;;;6.10;2.05;;;21.10;99.90;;;;;;5023423;28;20448;-71
2022/06/09 03:22:48;;;;;;;7.07;2.20;;;21.10;99.90;;;;;;5021429;28;20489;-72
2022/06/09 03:25:15;;;;;;;6.18;2.10;;;21.20;99.90;;;;;;5021179;28;20037;-72
2022/06/09 03:27:41;;;;;;;4.50;2.20;;;21.20;99.90;;;;;;5022517;28;20038;-72
2022/06/09 03:30:08;;;;;;;5.32;2.30;;;21.10;99.90;;;;;;5021214;28;20092;-72
2022/06/09 03:32:34;;;;;;;5.97;2.30;;;21.10;99.90;;;;;;5019324;28;20476;-72
2022/06/09 03:35:02;;;;;;;5.18;2.00;;;21.10;99.90;;;;;;5027781;28;20030;-72
2022/06/09 03:37:28;;;;;;;3.50;2.30;;;21.10;99.90;;;;;;5021114;28;20116;-72
2022/06/09 03:39:54;;;;;;;4.30;1.92;;;21.00;99.90;;;;;;5017384;28;20037;-72
2022/06/09 03:42:19;;;;;;;3.22;1.70;;;21.00;99.90;;;;;;5021406;28;20128;-72
2022/06/09 03:44:46;;;;;;;4.70;2.20;;;21.00;99.90;;;;;;5019124;28;20045;-72
2022/06/09 03:47:12;;;;;;;3.05;1.83;;;21.00;99.90;;;;;;5025236;28;20037;-72
2022/06/09 03:49:38;;;;;;;4.70;2.10;;;20.90;99.90;;;;;;5019570;28;20085;-72
2022/06/09 03:52:05;;;;;;;4.97;2.30;;;20.80;99.90;;;;;;5019487;28;20038;-71
2022/06/09 03:54:31;;;;;;;7.72;2.50;;;20.80;99.90;;;;;;5021473;28;20053;-72
2022/06/09 03:56:56;;;;;;;6.20;2.17;;;20.80;99.90;;;;;;5023063;28;20524;-72
2022/06/09 03:59:22;;;;;;;7.07;2.38;;;20.70;99.90;;;;;;5033096;28;20037;-71
2022/06/09 04:01:49;;;;;;;6.40;2.28;;;20.70;99.90;;;;;;5021901;28;20041;-72
2022/06/09 04:04:15;;;;;;;8.05;2.47;;;20.70;99.90;;;;;;5028813;28;20042;-72
2022/06/09 04:06:42;;;;;;;5.05;2.20;;;20.60;99.90;;;;;;5037824;28;20416;-71
2022/06/09 04:09:08;;;;;;;6.38;2.28;;;20.60;99.90;;;;;;5022917;28;20099;-71
2022/06/09 04:11:34;;;;;;;5.47;2.15;;;20.60;99.90;;;;;;5037944;28;20065;-72
2022/06/09 04:14:00;;;;;;;4.18;2.45;;;20.50;99.90;;;;;;5019099;28;20046;-71
2022/06/09 04:16:31;;;;;;;5.40;2.47;;;20.50;99.90;;;;;;5018356;28;20029;-72
2022/06/09 04:19:00;;;;;;;7.22;2.60;;;20.50;99.90;;;;;;5024219;28;20061;-71
2022/06/09 04:21:27;;;;;;;4.65;2.50;;;20.50;99.90;;;;;;5023720;28;20120;-72
2022/06/09 04:23:55;;;;;;;3.55;2.20;;;20.50;99.90;;;;;;5020780;28;20087;-71
2022/06/09 04:26:24;;;;;;;6.75;2.90;;;20.40;99.90;;;;;;5021470;28;20054;-72
2022/06/09 04:28:51;;;;;;;5.57;2.25;;;20.50;99.90;;;;;;5023634;28;20057;-71
2022/06/09 04:31:18;;;;;;;4.57;2.53;;;20.50;99.90;;;;;;5022772;28;20042;-71
2022/06/09 04:33:45;;;;;;;7.55;3.00;;;20.50;99.90;;;;;;5023082;28;20049;-72
2022/06/09 04:36:12;;;;;;;9.73;2.65;;;20.50;99.90;;;;;;5021583;28;20052;-72
2022/06/09 04:38:40;;;;;;;5.25;2.40;;;20.50;99.90;;;;;;5023209;28;20465;-71
2022/06/09 04:41:09;;;;;;;7.30;3.00;;;20.50;99.90;;;;;;5026771;28;20076;-72
2022/06/09 04:43:40;;;;;;;8.13;2.92;;;20.50;99.90;;;;;;5022657;28;20049;-73
2022/06/09 04:46:08;;;;;;;7.50;3.08;;;20.50;99.90;;;;;;5019323;28;20042;-73
2022/06/09 04:48:36;;;;;;;6.25;2.90;;;20.60;99.90;;;;;;5024420;28;20386;-71
2022/06/09 04:51:04;;;;;;;5.82;3.10;;;20.60;99.90;;;;;;5027596;28;20102;-71
2022/06/09 04:53:31;;;;;;;10.05;2.88;;;20.70;99.90;;;;;;5053248;28;20491;-72
2022/06/09 04:55:57;;;;;;;8.38;3.45;;;20.80;99.90;;;;;;5036180;28;20046;-72
2022/06/09 04:58:23;;;;;;;4.88;2.67;;;20.70;99.90;;;;;;5036284;28;20041;-72
2022/06/09 05:00:49;;;;;;;8.25;2.83;;;20.80;99.90;;;;;;5019273;28;20069;-72
2022/06/09 05:03:15;;;;;;;5.40;2.70;;;20.80;99.90;;;;;;5023064;28;20037;-72
2022/06/09 05:05:44;;;;;;;6.05;2.85;;;20.70;99.90;;;;;;5019575;28;20065;-72
2022/06/09 05:08:11;;;;;;;7.47;3.10;;;20.80;99.90;;;;;;5021250;28;20093;-74
2022/06/09 05:10:39;;;;;;;8.90;3.05;;;20.70;99.90;;;;;;5020210;28;20049;-72
2022/06/09 05:13:06;;;;;;;9.38;3.70;;;20.80;99.90;;;;;;5037931;28;20116;-72
2022/06/09 05:15:36;;;;;;;9.20;3.40;;;20.70;99.90;;;;;;5026499;28;20038;-73
2022/06/09 05:18:04;;;;;;;8.02;3.40;;;20.70;99.90;;;;;;5020869;28;20037;-72
2022/06/09 05:20:30;;;;;;;5.82;3.90;;;20.80;99.90;;;;;;5021233;28;20038;-72
2022/06/09 05:22:56;;;;;;;8.07;4.15;;;20.80;99.90;;;;;;5017899;28;20045;-72
2022/06/09 05:25:23;;;;;;;8.02;3.78;;;20.80;99.90;;;;;;5051324;28;20038;-72
2022/06/09 05:27:49;;;;;;;7.53;4.03;;;20.80;99.90;;;;;;5015768;28;20141;-72
2022/06/09 05:30:22;;;;;;;7.70;3.13;;;20.80;99.90;;;;;;5024071;28;20041;-72
2022/06/09 05:32:49;;;;;;;7.38;3.20;;;20.90;99.90;;;;;;5037025;28;20730;-72
2022/06/09 05:35:16;;;;;;;7.80;3.13;;;21.00;99.90;;;;;;5024819;28;20360;-72
2022/06/09 05:45:58;;;;;;;7.63;2.47;;;21.20;99.90;;;;;;5020482;28;20133;-72
2022/06/09 05:48:25;;;;;;;7.15;2.22;;;21.30;99.90;;;;;;5020008;28;20061;-71
2022/06/09 05:50:52;;;;;;;3.33;1.40;;;21.40;99.90;;;;;;5025415;28;20748;-72
2022/06/09 05:53:19;;;;;;;5.30;1.90;;;21.40;99.90;;;;;;5017444;28;20045;-72
2022/06/09 05:55:45;;;;;;;6.03;1.98;;;21.50;99.90;;;;;;5024122;28;20029;-72
2022/06/09 05:58:11;;;;;;;3.67;1.52;;;21.50;99.90;;;;;;5022224;28;20124;-72
2022/06/09 06:00:41;;;;;;;4.15;1.40;;;21.60;99.90;;;;;;5019381;28;20052;-72
2022/06/09 06:03:11;;;;;;;4.97;1.73;;;21.60;99.90;;;;;;5020952;28;20037;-72
2022/06/09 06:08:21;;;;;;;3.30;1.23;;;21.60;99.90;;;;;;5018836;28;20048;-72
2022/06/09 06:10:49;;;;;;;1.33;1.02;;;21.70;99.90;;;;;;5018518;28;20034;-72
2022/06/09 06:13:15;;;;;;;2.25;1.45;;;21.70;99.90;;;;;;5018328;28;20538;-73
2022/06/09 06:15:41;;;;;;;3.67;1.20;;;21.70;99.90;;;;;;5038623;28;20129;-73
2022/06/09 06:18:07;;;;;;;2.97;1.30;;;21.70;99.90;;;;;;5033089;28;20121;-73
2022/06/09 06:20:34;;;;;;;4.32;1.48;;;21.80;99.90;;;;;;5030685;28;20156;-73
2022/06/09 06:23:00;;;;;;;2.72;1.23;;;21.80;99.90;;;;;;5023450;28;20052;-73
2022/06/09 06:25:26;;;;;;;2.42;1.05;;;21.90;99.90;;;;;;5014307;28;20049;-72
2022/06/09 06:27:53;;;;;;;5.70;1.65;;;22.00;99.90;;;;;;5034149;28;20037;-72
2022/06/09 06:30:21;;;;;;;3.97;1.48;;;22.00;99.90;;;;;;5019654;28;20030;-73
2022/06/09 06:32:50;;;;;;;3.75;1.25;;;22.10;99.90;;;;;;5034971;28;20047;-74
2022/06/09 06:35:16;;;;;;;5.70;1.00;;;22.10;99.90;;;;;;5016046;28;20045;-72
2022/06/09 06:37:43;;;;;;;3.15;1.17;;;22.10;99.90;;;;;;5023564;28;20062;-72
2022/06/09 06:40:13;;;;;;;2.38;1.17;;;22.10;99.90;;;;;;5037729;28;20038;-72
2022/06/09 06:42:39;;;;;;;6.15;1.00;;;22.20;99.90;;;;;;5024267;28;20499;-72
2022/06/09 06:45:07;;;;;;;2.28;1.20;;;22.10;99.90;;;;;;5037032;28;20072;-71
2022/06/09 06:47:33;;;;;;;2.60;0.95;;;22.20;99.90;;;;;;5021146;28;20038;-72
2022/06/09 06:49:58;;;;;;;4.35;1.30;;;22.30;99.90;;;;;;5030769;28;20112;-73
2022/06/09 06:52:26;;;;;;;4.88;0.80;;;22.40;99.90;;;;;;5035433;28;20116;-72
2022/06/09 06:54:51;;;;;;;1.88;0.90;;;22.50;99.90;;;;;;5043854;28;20041;-71
2022/06/09 06:57:17;;;;;;;4.35;1.05;;;22.50;99.90;;;;;;5024515;28;20473;-71
2022/06/09 06:59:43;;;;;;;4.72;1.23;;;22.60;99.90;;;;;;5023103;28;20069;-73
2022/06/09 07:02:14;;;;;;;2.72;1.10;;;22.60;99.90;;;;;;5023632;28;20033;-72
2022/06/09 07:04:40;;;;;;;2.28;1.00;;;22.60;99.90;;;;;;5011828;28;20038;-72
2022/06/09 07:07:06;;;;;;;2.83;0.77;;;22.70;99.90;;;;;;5021179;28;20193;-73
2022/06/09 07:09:32;;;;;;;3.08;1.00;;;22.80;99.90;;;;;;5023512;28;20598;-72
2022/06/09 07:11:58;;;;;;;4.22;1.30;;;23.00;99.90;;;;;;5036299;28;20048;-72
2022/06/09 07:14:24;;;;;;;2.33;1.00;;;23.10;99.90;;;;;;5025204;28;20132;-72
2022/06/09 07:16:54;;;;;;;4.15;1.20;;;23.20;99.90;;;;;;5024280;28;20050;-72
2022/06/09 07:19:20;;;;;;;5.70;1.35;;;23.30;99.90;;;;;;5020774;28;20048;-73
2022/06/09 07:21:46;;;;;;;6.20;1.10;;;23.30;99.90;;;;;;5022620;28;20034;-72
2022/06/09 07:24:12;;;;;;;5.03;1.48;;;23.40;99.90;;;;;;5021155;28;20041;-73
2022/06/09 07:26:38;;;;;;;4.43;1.13;;;23.50;99.90;;;;;;5021830;28;20041;-71
2022/06/09 07:29:04;;;;;;;2.35;1.20;;;23.50;99.90;;;;;;5035805;28;20049;-72
2022/06/09 07:31:31;;;;;;;2.65;1.08;;;23.40;99.90;;;;;;5023349;28;20636;-72
2022/06/09 07:33:57;;;;;;;3.97;1.20;;;23.40;99.90;;;;;;5020809;28;20041;-71
2022/06/09 07:36:25;;;;;;;2.85;1.20;;;23.50;99.90;;;;;;5017683;28;20125;-71
2022/06/09 07:38:52;;;;;;;7.55;1.60;;;23.50;99.90;;;;;;5010770;28;20481;-75
2022/06/09 07:41:20;;;;;;;4.60;1.35;;;23.70;99.90;;;;;;5009167;28;20053;-76
2022/06/09 07:43:47;;;;;;;3.08;1.35;;;23.70;99.90;;;;;;5013361;28;20053;-76
2022/06/09 07:46:14;;;;;;;5.60;1.33;;;23.80;99.90;;;;;;5010606;28;20037;-74
2022/06/09 07:48:41;;;;;;;3.75;1.10;;;23.90;99.90;;;;;;5013979;28;20037;-75
2022/06/09 07:51:08;;;;;;;3.67;1.45;;;24.00;99.90;;;;;;5023486;28;20038;-75
2022/06/09 07:53:35;;;;;;;2.90;1.27;;;24.10;99.90;;;;;;5012300;28;20091;-75
2022/06/09 07:56:01;;;;;;;3.45;1.60;;;24.10;99.90;;;;;;5012752;28;20374;-77
2022/06/09 07:58:27;;;;;;;4.20;2.00;;;24.10;99.90;;;;;;5026946;28;20042;-76
2022/06/09 08:00:53;;;;;;;10.27;2.40;;;24.20;99.90;;;;;;5023250;28;20034;-75
2022/06/09 08:03:23;;;;;;;7.72;2.10;;;24.00;99.90;;;;;;5027537;28;20041;-73
2022/06/09 08:05:49;;;;;;;4.63;1.70;;;24.00;99.90;;;;;;5008256;28;20347;-73
2022/06/09 08:08:15;;;;;;;4.10;1.67;;;24.20;99.90;;;;;;5013452;28;20128;-71
2022/06/09 08:10:42;;;;;;;6.82;2.08;;;24.40;99.90;;;;;;5017344;28;20056;-72
2022/06/09 08:13:09;;;;;;;3.55;1.80;;;24.50;99.90;;;;;;5015396;28;20433;-71
2022/06/09 08:15:37;;;;;;;7.13;2.83;;;24.50;99.90;;;;;;5020605;28;20504;-72
2022/06/09 08:18:05;;;;;;;4.68;2.58;;;24.00;99.90;;;;;;5015260;28;20033;-72
2022/06/09 08:20:35;;;;;;;7.05;2.58;;;24.00;99.90;;;;;;5022294;28;20037;-72
2022/06/09 08:23:08;;;;;;;6.80;2.50;;;24.00;99.90;;;;;;5054024;28;20041;-72
2022/06/09 08:25:34;;;;;;;6.78;2.20;;;23.90;99.90;;;;;;5018647;28;20105;-73
2022/06/09 08:28:02;;;;;;;6.88;2.63;;;23.80;99.90;;;;;;5038271;28;20053;-72
2022/06/09 08:30:29;;;;;;;9.02;2.45;;;23.90;99.90;;;;;;5020851;28;20537;-73
2022/06/09 08:32:54;;;;;;;9.02;2.47;;;24.00;99.90;;;;;;5027979;28;20585;-72
2022/06/09 08:35:21;;;;;;;6.97;2.17;;;24.00;99.90;;;;;;5022592;28;20101;-72
2022/06/09 08:37:50;;;;;;;7.93;2.60;;;24.30;99.90;;;;;;5018587;28;20045;-73
2022/06/09 08:40:44;;;;;;;5.68;2.78;;;24.50;99.90;;;;;;5020097;28;20485;-73
2022/06/09 08:43:32;;;;;;;7.20;2.58;;;24.50;99.90;;;;;;5020114;28;20091;-72
2022/06/09 08:46:19;;;;;;;10.20;2.55;;;24.50;99.90;;;;;;5021798;28;20046;-73
2022/06/09 08:48:47;;;;;;;6.32;2.58;;;24.50;99.90;;;;;;5019535;28;20386;-73
2022/06/09 08:51:40;;;;;;;8.27;2.47;;;24.60;99.90;;;;;;5032693;28;20032;-72
2022/06/09 08:54:18;;;;;;;9.05;2.33;;;24.50;99.90;;;;;;5021792;28;20030;-72
2022/06/09 08:56:45;;;;;;;7.93;2.30;;;24.50;99.90;;;;;;5053384;28;20060;-73
2022/06/09 08:59:19;;;;;;;10.95;2.45;;;24.60;99.90;;;;;;5020457;28;20030;-73
2022/06/09 09:01:57;;;;;;;5.47;2.33;;;24.90;99.90;;;;;;5019856;28;20107;-72
2022/06/09 09:04:35;;;;;;;7.00;2.03;;;25.00;99.90;;;;;;5019899;28;20041;-72
2022/06/09 09:07:26;;;;;;;7.40;2.75;;;25.10;99.90;;;;;;5024510;28;20042;-73
2022/06/09 09:10:20;;;;;;;10.40;2.05;;;25.10;99.90;;;;;;5054620;28;20034;-73
2022/06/09 09:13:24;;;;;;;7.88;2.30;;;24.90;99.90;;;;;;5032879;28;20572;-73
2022/06/09 09:15:59;;;;;;;7.45;2.42;;;24.90;99.90;;;;;;5016204;28;20072;-73
2022/06/09 09:18:53;;;;;;;6.88;2.50;;;25.00;99.90;;;;;;5023557;28;20041;-73
2022/06/09 09:21:31;;;;;;;7.05;2.53;;;25.00;99.90;;;;;;5019870;28;20044;-72
2022/06/09 09:24:35;;;;;;;7.90;2.50;;;25.00;99.90;;;;;;5035557;28;20065;-72
2022/06/09 09:27:20;;;;;;;7.57;2.25;;;25.00;99.90;;;;;;5009211;28;20042;-73
2022/06/09 09:30:08;;;;;;;6.28;2.17;;;25.00;99.90;;;;;;5006046;28;20036;-72
2022/06/09 09:32:42;;;;;;;5.60;2.10;;;25.00;99.90;;;;;;5018512;28;20496;-72
2022/06/09 09:35:18;;;;;;;6.78;2.40;;;24.90;99.90;;;;;;5021672;28;20084;-71
2022/06/09 09:37:52;;;;;;;7.70;2.10;;;24.90;99.90;;;;;;5020556;28;20453;-73
2022/06/09 09:40:26;;;;;;;6.75;2.10;;;24.80;99.90;;;;;;5018589;28;20647;-73
2022/06/09 09:42:56;;;;;;;6.30;2.35;;;24.80;99.90;;;;;;5024707;28;20052;-72
2022/06/09 09:45:32;;;;;;;6.22;2.53;;;25.00;99.90;;;;;;5035733;28;20030;-73
2022/06/09 09:48:01;;;;;;;9.25;2.35;;;25.00;99.90;;;;;;5020376;28;20037;-72
2022/06/09 09:50:33;;;;;;;4.50;1.70;;;25.10;99.90;;;;;;5005450;28;20026;-73
2022/06/09 09:53:33;;;;;;;8.50;1.98;;;25.40;99.90;;;;;;5036205;28;20038;-72
2022/06/09 09:56:03;;;;;;;7.45;2.10;;;25.60;99.90;;;;;;5043507;28;20045;-72
2022/06/09 09:58:34;;;;;;;7.25;1.63;;;25.40;99.90;;;;;;5020616;28;20034;-71
2022/06/09 10:01:25;;;;;;;4.22;1.65;;;25.60;99.90;;;;;;5033461;28;20060;-72
2022/06/09 10:09:52;;;;;;;5.10;1.33;;;25.50;99.90;;;;;;5015847;28;20390;-74
2022/06/09 10:12:24;;;;;;;4.50;1.58;;;25.80;99.90;;;;;;5051782;28;20036;-72
2022/06/09 10:14:52;;;;;;;;;;;25.90;99.90;;;;;;5033516;28;20056;-73
2022/06/09 10:17:26;;;;;;;4.28;1.52;;;25.90;99.90;;;;;;5022953;28;19921;-73
2022/06/09 10:20:05;;;;;;;8.40;1.80;;;25.70;99.90;;;;;;5033910;28;20124;-73
2022/06/09 10:22:35;;;;;;;9.02;1.77;;;25.90;99.90;;;;;;5050241;28;20037;-75
2022/06/09 10:25:20;;;;;;;6.47;1.85;;;26.00;99.90;;;;;;5023781;28;20038;-73
2022/06/09 10:27:52;;;;;;;5.32;1.85;;;26.10;99.90;;;;;;5019560;28;20494;-72
2022/06/09 10:30:43;;;;;;;7.10;1.75;;;26.60;99.90;;;;;;5034510;28;20049;-73
2022/06/09 10:33:24;;;;;;;3.47;1.40;;;26.60;99.90;;;;;;5019482;28;20045;-72
2022/06/09 10:35:56;;;;;;;8.55;1.67;;;26.50;99.90;;;;;;5023727;28;20061;-73
2022/06/09 10:38:34;;;;;;;6.47;1.23;;;26.10;99.90;;;;;;5022152;28;20560;-72
2022/06/09 10:41:04;;;;;;;11.73;1.92;;;25.90;99.90;;;;;;5023919;28;20033;-73
2022/06/09 10:43:44;;;;;;;7.05;1.60;;;25.80;99.90;;;;;;5020600;28;20064;-72
2022/06/09 10:46:39;;;;;;;9.77;1.75;;;25.80;99.90;;;;;;5034940;28;20033;-73
2022/06/09 10:55:33;;;;;;;10.15;1.85;;;24.70;99.90;;;;;;5015454;28;20415;-73
2022/06/09 10:58:09;;;;;;;7.20;1.90;;;25.10;99.90;;;;;;5023269;28;20076;-72
2022/06/09 11:00:41;;;;;;;7.88;1.40;;;25.10;99.90;;;;;;5051426;28;20038;-73
2022/06/09 11:03:20;;;;;;;7.43;1.80;;;25.00;99.90;;;;;;5016573;28;20105;-73
2022/06/09 11:06:05;;;;;;;6.72;1.58;;;24.80;99.90;;;;;;5052019;28;20040;-72
2022/06/09 11:08:45;;;;;;;7.65;1.60;;;25.20;99.90;;;;;;5001468;28;20041;-72
2022/06/09 11:11:20;;;;;;;7.65;2.00;;;25.40;99.90;;;;;;5002631;28;20061;-74
2022/06/09 11:13:52;;;;;;;7.45;1.70;;;24.90;99.90;;;;;;5041084;28;20025;-73
2022/06/09 11:16:23;;;;;;;8.10;1.90;;;25.20;99.90;;;;;;5052901;28;20095;-72
2022/06/09 11:19:28;;;;;;;11.32;1.80;;;25.50;99.90;;;;;;5047606;28;20037;-73
2022/06/09 11:22:39;;;;;;;8.18;1.63;;;25.70;99.90;;;;;;4983935;28;20057;-73
2022/06/09 11:25:44;;;;;;;8.38;1.40;;;25.70;99.90;;;;;;5002384;28;20030;-73
2022/06/09 11:28:32;;;;;;;9.82;1.92;;;25.00;99.90;;;;;;5002407;28;20042;-73
2022/06/09 11:31:11;;;;;;;10.52;1.73;;;25.10;99.90;;;;;;5047246;28;20041;-73
2022/06/09 11:34:02;;;;;;;6.70;1.50;;;24.90;99.90;;;;;;5039295;28;20026;-73
2022/06/09 11:37:02;;;;;;;6.45;1.77;;;24.50;99.90;;;;;;5052496;28;20033;-73
2022/06/09 11:39:57;;;;;;;6.80;1.55;;;24.40;99.90;;;;;;5018022;28;20121;-73
2022/06/09 11:43:00;;;;;;;8.88;1.52;;;25.10;99.90;;;;;;5020947;28;20104;-73
2022/06/09 11:45:33;;;;;;;16.23;2.10;;;25.40;99.90;;;;;;5017674;28;20038;-73
2022/06/09 11:48:03;;;;;;;8.63;1.92;;;25.50;99.90;;;;;;5003175;28;20038;-74
2022/06/09 11:50:42;;;;;;;8.60;1.80;;;24.90;99.90;;;;;;5018482;28;20065;-72
2022/06/09 11:53:22;;;;;;;9.30;1.92;;;25.10;99.90;;;;;;5003790;28;20088;-73
2022/06/09 11:55:58;;;;;;;9.43;2.35;;;24.90;99.90;;;;;;5004941;28;20038;-73
2022/06/09 11:58:44;;;;;;;11.85;2.35;;;24.50;99.90;;;;;;5004379;28;20044;-73
2022/06/09 12:01:16;;;;;;;13.48;2.30;;;24.80;99.90;;;;;;5001303;28;20033;-72
2022/06/09 12:04:02;;;;;;;7.88;1.90;;;24.40;99.90;;;;;;5034884;28;20071;-73
2022/06/09 12:06:46;;;;;;;10.25;2.50;;;24.00;99.90;;;;;;5017188;28;20086;-72
2022/06/09 12:09:56;;;;;;;8.98;2.20;;;23.50;99.90;;;;;;5023762;28;20046;-73
2022/06/09 12:12:40;;;;;;;7.53;2.35;;;24.40;99.90;;;;;;5008077;28;20120;-72
2022/06/09 12:15:13;;;;;;;6.70;1.88;;;24.40;99.90;;;;;;5026395;28;20041;-73
2022/06/09 12:17:54;;;;;;;9.20;2.10;;;24.50;99.90;;;;;;5020314;28;20053;-72
2022/06/09 12:20:40;;;;;;;10.13;2.03;;;24.40;99.90;;;;;;5031714;28;20120;-73
2022/06/09 12:23:27;;;;;;;13.00;2.35;;;24.40;99.90;;;;;;5036460;28;20030;-73
2022/06/09 12:26:13;;;;;;;9.02;2.72;;;24.90;99.90;;;;;;5025848;28;20116;-73
2022/06/09 12:28:57;;;;;;;11.88;2.65;;;25.50;99.90;;;;;;5053620;28;20088;-72
2022/06/09 12:31:35;;;;;;;8.85;2.10;;;25.30;99.90;;;;;;5038315;28;20548;-72
2022/06/09 12:34:10;;;;;;;7.53;2.35;;;25.30;99.90;;;;;;5020527;28;20122;-73
2022/06/09 12:36:56;;;;;;;9.85;2.88;;;25.80;99.90;;;;;;5056207;28;20053;-72
2022/06/09 12:39:36;;;;;;;10.15;2.60;;;25.90;99.90;;;;;;5023577;28;20033;-72
2022/06/09 12:42:27;;;;;;;10.45;3.15;;;26.60;99.90;;;;;;5039876;28;20088;-73
2022/06/09 12:45:00;;;;;;;9.45;3.00;;;26.10;99.90;;;;;;5025546;28;20041;-73
2022/06/09 12:47:26;;;;;;;13.73;3.53;;;25.10;99.90;;;;;;5029104;28;20037;-73
2022/06/09 12:49:58;;;;;;;11.52;2.60;;;25.10;99.90;;;;;;5027536;28;20489;-72
2022/06/09 12:52:38;;;;;;;;;;;25.10;99.90;;;;;;5050997;28;20033;-73
2022/06/09 12:55:24;;;;;;;13.15;2.85;;;25.20;99.90;;;;;;5018110;28;19921;-73
2022/06/09 12:57:58;;;;;;;8.88;2.05;;;24.70;99.90;;;;;;5022516;28;20392;-73
2022/06/09 13:00:34;;;;;;;9.27;2.60;;;24.40;99.90;;;;;;5015955;28;20091;-73
2022/06/09 13:03:00;;;;;;;10.48;2.72;;;24.80;99.90;;;;;;5021088;28;20126;-74
2022/06/09 13:05:33;;;;;;;12.00;3.35;;;24.50;99.90;;;;;;5036167;28;20034;-74
2022/06/09 13:08:12;;;;;;;17.95;3.00;;;24.90;99.90;;;;;;5019660;28;20033;-73
2022/06/09 13:10:43;;;;;;;11.18;2.53;;;24.40;99.90;;;;;;5034637;28;20036;-72
2022/06/09 13:13:25;;;;;;;11.63;2.60;;;24.40;99.90;;;;;;5018731;28;20156;-73
2022/06/09 13:16:00;;;;;;;10.75;3.28;;;24.60;99.90;;;;;;5020661;28;20103;-73
2022/06/09 13:18:27;;;;;;;12.25;3.60;;;24.70;99.90;;;;;;5022072;28;20056;-73
2022/06/09 13:21:17;;;;;;;16.80;3.25;;;25.00;99.90;;;;;;5040483;28;20040;-72
2022/06/09 13:23:50;;;;;;;13.18;3.20;;;25.20;99.90;;;;;;5035997;28;20048;-72
2022/06/09 13:26:29;;;;;;;13.27;2.53;;;24.80;99.90;;;;;;5022388;28;20055;-73
2022/06/09 13:28:58;;;;;;;13.38;2.78;;;24.40;99.90;;;;;;5025065;28;20042;-73
2022/06/09 13:31:37;;;;;;;10.68;2.50;;;25.60;99.90;;;;;;5020009;28;20030;-74
2022/06/09 13:34:12;;;;;;;10.93;2.92;;;25.80;99.90;;;;;;5021905;28;20029;-73
2022/06/09 13:36:56;;;;;;;11.57;2.80;;;25.60;99.90;;;;;;5037061;28;20582;-74